sensor_id;sensor_type;location;lat;lon;timestamp;P1;durP1;ratioP1;P2;durP2;ratioP2
69463;SDS011;56665;41.106;16.688;2023-11-19T00:00:33;4.50;;;2.13;;
69463;SDS011;56665;41.106;16.688;2023-11-19T00:03:37;4.60;;;1.90;;
69463;SDS011;56665;41.106;16.688;2023-11-19T00:06:40;4.85;;;2.10;;
69463;SDS011;56665;41.106;16.688;2023-11-19T00:09:44;4.68;;;2.10;;
69463;SDS011;56665;41.106;16.688;2023-11-19T00:12:48;6.30;;;2.58;;
69463;SDS011;56665;41.106;16.688;2023-11-19T00:15:52;5.88;;;2.50;;
69463;SDS011;56665;41.106;16.688;2023-11-19T00:18:56;9.33;;;3.20;;
69463;SDS011;56665;41.106;16.688;2023-11-19T00:22:00;8.48;;;3.40;;
69463;SDS011;56665;41.106;16.688;2023-11-19T00:25:06;6.22;;;2.88;;
69463;SDS011;56665;41.106;16.688;2023-11-19T00:28:11;7.38;;;2.88;;
69463;SDS011;56665;41.106;16.688;2023-11-19T00:31:15;7.20;;;2.72;;
69463;SDS011;56665;41.106;16.688;2023-11-19T00:34:18;7.07;;;3.00;;
69463;SDS011;56665;41.106;16.688;2023-11-19T00:37:24;6.38;;;3.30;;
69463;SDS011;56665;41.106;16.688;2023-11-19T00:40:28;7.90;;;3.17;;
69463;SDS011;56665;41.106;16.688;2023-11-19T00:43:32;9.50;;;3.40;;
69463;SDS011;56665;41.106;16.688;2023-11-19T00:46:35;7.15;;;3.10;;
69463;SDS011;56665;41.106;16.688;2023-11-19T00:49:40;7.67;;;2.83;;
69463;SDS011;56665;41.106;16.688;2023-11-19T00:52:43;7.72;;;3.05;;
69463;SDS011;56665;41.106;16.688;2023-11-19T00:55:47;8.65;;;2.60;;
69463;SDS011;56665;41.106;16.688;2023-11-19T00:58:51;7.70;;;2.70;;
69463;SDS011;56665;41.106;16.688;2023-11-19T01:01:54;6.07;;;2.10;;
69463;SDS011;56665;41.106;16.688;2023-11-19T01:04:59;6.10;;;1.90;;
69463;SDS011;56665;41.106;16.688;2023-11-19T01:08:03;6.03;;;2.08;;
69463;SDS011;56665;41.106;16.688;2023-11-19T01:11:08;6.40;;;2.53;;
69463;SDS011;56665;41.106;16.688;2023-11-19T01:14:12;8.23;;;2.55;;
69463;SDS011;56665;41.106;16.688;2023-11-19T01:17:15;7.07;;;2.63;;
69463;SDS011;56665;41.106;16.688;2023-11-19T01:20:19;6.30;;;2.77;;
69463;SDS011;56665;41.106;16.688;2023-11-19T01:23:23;6.68;;;2.40;;
69463;SDS011;56665;41.106;16.688;2023-11-19T01:26:26;9.55;;;2.60;;
69463;SDS011;56665;41.106;16.688;2023-11-19T01:29:30;8.15;;;2.85;;
69463;SDS011;56665;41.106;16.688;2023-11-19T01:32:34;5.70;;;2.53;;
69463;SDS011;56665;41.106;16.688;2023-11-19T01:35:38;9.07;;;2.80;;
69463;SDS011;56665;41.106;16.688;2023-11-19T01:38:41;15.38;;;4.95;;
69463;SDS011;56665;41.106;16.688;2023-11-19T01:41:46;15.20;;;4.93;;
69463;SDS011;56665;41.106;16.688;2023-11-19T01:44:57;18.80;;;5.95;;
69463;SDS011;56665;41.106;16.688;2023-11-19T01:48:02;9.18;;;4.18;;
69463;SDS011;56665;41.106;16.688;2023-11-19T01:51:07;7.10;;;2.80;;
69463;SDS011;56665;41.106;16.688;2023-11-19T01:54:11;9.10;;;3.15;;
69463;SDS011;56665;41.106;16.688;2023-11-19T01:57:16;10.73;;;3.50;;
69463;SDS011;56665;41.106;16.688;2023-11-19T02:00:20;12.75;;;4.78;;
69463;SDS011;56665;41.106;16.688;2023-11-19T02:03:24;18.80;;;5.97;;
69463;SDS011;56665;41.106;16.688;2023-11-19T02:06:29;15.43;;;4.87;;
69463;SDS011;56665;41.106;16.688;2023-11-19T02:09:35;16.00;;;3.80;;
69463;SDS011;56665;41.106;16.688;2023-11-19T02:12:42;7.28;;;2.95;;
69463;SDS011;56665;41.106;16.688;2023-11-19T02:15:46;8.32;;;3.10;;
69463;SDS011;56665;41.106;16.688;2023-11-19T02:18:50;6.55;;;2.90;;
69463;SDS011;56665;41.106;16.688;2023-11-19T02:21:54;8.17;;;2.50;;
69463;SDS011;56665;41.106;16.688;2023-11-19T02:24:59;5.57;;;2.20;;
69463;SDS011;56665;41.106;16.688;2023-11-19T02:28:05;4.88;;;1.98;;
69463;SDS011;56665;41.106;16.688;2023-11-19T02:31:10;5.10;;;1.70;;
69463;SDS011;56665;41.106;16.688;2023-11-19T02:34:14;5.60;;;2.05;;
69463;SDS011;56665;41.106;16.688;2023-11-19T02:37:18;5.33;;;1.87;;
69463;SDS011;56665;41.106;16.688;2023-11-19T02:40:22;4.63;;;1.50;;
69463;SDS011;56665;41.106;16.688;2023-11-19T02:43:27;6.32;;;1.77;;
69463;SDS011;56665;41.106;16.688;2023-11-19T02:46:31;4.45;;;1.83;;
69463;SDS011;56665;41.106;16.688;2023-11-19T02:49:36;4.75;;;2.00;;
69463;SDS011;56665;41.106;16.688;2023-11-19T02:52:43;6.57;;;2.30;;
69463;SDS011;56665;41.106;16.688;2023-11-19T02:55:48;6.30;;;2.28;;
69463;SDS011;56665;41.106;16.688;2023-11-19T02:58:53;5.47;;;2.00;;
69463;SDS011;56665;41.106;16.688;2023-11-19T03:01:57;6.22;;;2.10;;
69463;SDS011;56665;41.106;16.688;2023-11-19T03:05:02;7.40;;;2.17;;
69463;SDS011;56665;41.106;16.688;2023-11-19T03:08:07;6.23;;;1.70;;
69463;SDS011;56665;41.106;16.688;2023-11-19T03:11:10;4.10;;;1.83;;
69463;SDS011;56665;41.106;16.688;2023-11-19T03:14:14;7.30;;;2.72;;
69463;SDS011;56665;41.106;16.688;2023-11-19T03:17:18;12.82;;;4.13;;
69463;SDS011;56665;41.106;16.688;2023-11-19T03:20:22;15.18;;;5.55;;
69463;SDS011;56665;41.106;16.688;2023-11-19T03:23:27;23.13;;;7.17;;
69463;SDS011;56665;41.106;16.688;2023-11-19T03:26:31;12.20;;;5.30;;
69463;SDS011;56665;41.106;16.688;2023-11-19T03:29:37;11.30;;;4.15;;
69463;SDS011;56665;41.106;16.688;2023-11-19T03:32:41;11.02;;;3.38;;
69463;SDS011;56665;41.106;16.688;2023-11-19T03:35:45;7.82;;;2.90;;
69463;SDS011;56665;41.106;16.688;2023-11-19T03:38:49;8.63;;;2.80;;
69463;SDS011;56665;41.106;16.688;2023-11-19T03:41:53;6.88;;;3.30;;
69463;SDS011;56665;41.106;16.688;2023-11-19T03:44:57;10.57;;;3.85;;
69463;SDS011;56665;41.106;16.688;2023-11-19T03:48:01;11.15;;;4.03;;
69463;SDS011;56665;41.106;16.688;2023-11-19T03:51:05;18.83;;;5.70;;
69463;SDS011;56665;41.106;16.688;2023-11-19T03:54:08;18.97;;;6.37;;
69463;SDS011;56665;41.106;16.688;2023-11-19T03:57:12;19.83;;;7.13;;
69463;SDS011;56665;41.106;16.688;2023-11-19T04:00:16;17.67;;;6.97;;
69463;SDS011;56665;41.106;16.688;2023-11-19T04:03:20;25.92;;;8.20;;
69463;SDS011;56665;41.106;16.688;2023-11-19T04:06:25;29.40;;;9.10;;
69463;SDS011;56665;41.106;16.688;2023-11-19T04:09:29;40.10;;;11.50;;
69463;SDS011;56665;41.106;16.688;2023-11-19T04:12:33;34.15;;;10.98;;
69463;SDS011;56665;41.106;16.688;2023-11-19T04:15:37;24.98;;;8.27;;
69463;SDS011;56665;41.106;16.688;2023-11-19T04:18:41;20.92;;;7.40;;
69463;SDS011;56665;41.106;16.688;2023-11-19T04:21:45;21.95;;;6.10;;
69463;SDS011;56665;41.106;16.688;2023-11-19T04:24:49;17.13;;;5.60;;
69463;SDS011;56665;41.106;16.688;2023-11-19T04:27:53;15.40;;;4.63;;
69463;SDS011;56665;41.106;16.688;2023-11-19T04:30:57;15.05;;;5.25;;
69463;SDS011;56665;41.106;16.688;2023-11-19T04:34:01;10.70;;;3.88;;
69463;SDS011;56665;41.106;16.688;2023-11-19T04:37:05;13.25;;;3.45;;
69463;SDS011;56665;41.106;16.688;2023-11-19T04:40:09;13.43;;;5.30;;
69463;SDS011;56665;41.106;16.688;2023-11-19T04:43:14;17.80;;;5.63;;
69463;SDS011;56665;41.106;16.688;2023-11-19T04:46:19;16.48;;;5.47;;
69463;SDS011;56665;41.106;16.688;2023-11-19T04:49:22;14.13;;;4.18;;
69463;SDS011;56665;41.106;16.688;2023-11-19T04:52:26;9.82;;;3.17;;
69463;SDS011;56665;41.106;16.688;2023-11-19T04:55:30;6.63;;;2.77;;
69463;SDS011;56665;41.106;16.688;2023-11-19T04:58:34;8.32;;;2.80;;
69463;SDS011;56665;41.106;16.688;2023-11-19T05:01:38;7.80;;;2.58;;
69463;SDS011;56665;41.106;16.688;2023-11-19T05:04:42;7.13;;;2.55;;
69463;SDS011;56665;41.106;16.688;2023-11-19T05:07:49;7.68;;;2.55;;
69463;SDS011;56665;41.106;16.688;2023-11-19T05:10:53;9.27;;;3.50;;
69463;SDS011;56665;41.106;16.688;2023-11-19T05:13:57;12.15;;;4.22;;
69463;SDS011;56665;41.106;16.688;2023-11-19T05:17:02;24.30;;;7.25;;
69463;SDS011;56665;41.106;16.688;2023-11-19T05:20:05;28.48;;;9.32;;
69463;SDS011;56665;41.106;16.688;2023-11-19T05:23:16;28.48;;;9.40;;
69463;SDS011;56665;41.106;16.688;2023-11-19T05:26:20;37.00;;;10.90;;
69463;SDS011;56665;41.106;16.688;2023-11-19T05:29:25;39.38;;;13.00;;
69463;SDS011;56665;41.106;16.688;2023-11-19T05:32:29;37.38;;;12.52;;
69463;SDS011;56665;41.106;16.688;2023-11-19T05:35:32;27.42;;;8.75;;
69463;SDS011;56665;41.106;16.688;2023-11-19T05:38:38;15.10;;;4.85;;
69463;SDS011;56665;41.106;16.688;2023-11-19T05:41:42;14.00;;;4.20;;
69463;SDS011;56665;41.106;16.688;2023-11-19T05:44:46;10.50;;;4.28;;
69463;SDS011;56665;41.106;16.688;2023-11-19T05:47:50;12.40;;;4.60;;
69463;SDS011;56665;41.106;16.688;2023-11-19T05:50:55;11.75;;;5.00;;
69463;SDS011;56665;41.106;16.688;2023-11-19T05:53:58;14.27;;;5.60;;
69463;SDS011;56665;41.106;16.688;2023-11-19T05:57:03;13.43;;;5.07;;
69463;SDS011;56665;41.106;16.688;2023-11-19T06:00:13;10.68;;;4.90;;
69463;SDS011;56665;41.106;16.688;2023-11-19T06:03:18;8.77;;;4.15;;
69463;SDS011;56665;41.106;16.688;2023-11-19T06:06:22;8.82;;;3.95;;
69463;SDS011;56665;41.106;16.688;2023-11-19T06:09:26;9.40;;;3.90;;
69463;SDS011;56665;41.106;16.688;2023-11-19T06:12:29;7.63;;;3.77;;
69463;SDS011;56665;41.106;16.688;2023-11-19T06:15:35;11.02;;;4.70;;
69463;SDS011;56665;41.106;16.688;2023-11-19T06:18:39;13.40;;;4.90;;
69463;SDS011;56665;41.106;16.688;2023-11-19T06:21:44;9.95;;;5.20;;
69463;SDS011;56665;41.106;16.688;2023-11-19T06:24:48;10.95;;;5.10;;
69463;SDS011;56665;41.106;16.688;2023-11-19T06:27:52;10.90;;;5.80;;
69463;SDS011;56665;41.106;16.688;2023-11-19T06:30:55;12.55;;;5.88;;
69463;SDS011;56665;41.106;16.688;2023-11-19T06:34:00;10.80;;;5.30;;
69463;SDS011;56665;41.106;16.688;2023-11-19T06:37:04;9.63;;;5.45;;
69463;SDS011;56665;41.106;16.688;2023-11-19T06:40:08;10.60;;;5.30;;
69463;SDS011;56665;41.106;16.688;2023-11-19T06:43:12;11.70;;;4.70;;
69463;SDS011;56665;41.106;16.688;2023-11-19T06:46:17;13.05;;;5.85;;
69463;SDS011;56665;41.106;16.688;2023-11-19T06:49:20;15.55;;;6.47;;
69463;SDS011;56665;41.106;16.688;2023-11-19T06:52:24;16.40;;;7.35;;
69463;SDS011;56665;41.106;16.688;2023-11-19T06:55:28;20.92;;;8.52;;
69463;SDS011;56665;41.106;16.688;2023-11-19T06:58:35;19.97;;;7.97;;
69463;SDS011;56665;41.106;16.688;2023-11-19T07:01:39;20.08;;;8.05;;
69463;SDS011;56665;41.106;16.688;2023-11-19T07:04:46;17.98;;;7.60;;
69463;SDS011;56665;41.106;16.688;2023-11-19T07:07:50;17.75;;;6.97;;
69463;SDS011;56665;41.106;16.688;2023-11-19T07:10:54;15.32;;;6.40;;
69463;SDS011;56665;41.106;16.688;2023-11-19T07:13:58;12.70;;;5.70;;
69463;SDS011;56665;41.106;16.688;2023-11-19T07:17:04;15.65;;;5.97;;
69463;SDS011;56665;41.106;16.688;2023-11-19T07:20:08;14.88;;;5.82;;
69463;SDS011;56665;41.106;16.688;2023-11-19T07:23:12;17.77;;;7.18;;
69463;SDS011;56665;41.106;16.688;2023-11-19T07:26:19;11.85;;;5.78;;
69463;SDS011;56665;41.106;16.688;2023-11-19T07:29:23;11.20;;;5.83;;
69463;SDS011;56665;41.106;16.688;2023-11-19T07:32:27;12.95;;;5.70;;
69463;SDS011;56665;41.106;16.688;2023-11-19T07:35:31;15.32;;;6.43;;
69463;SDS011;56665;41.106;16.688;2023-11-19T07:38:35;12.48;;;6.57;;
69463;SDS011;56665;41.106;16.688;2023-11-19T07:41:40;15.00;;;5.85;;
69463;SDS011;56665;41.106;16.688;2023-11-19T07:44:43;11.70;;;5.33;;
69463;SDS011;56665;41.106;16.688;2023-11-19T07:47:47;10.73;;;5.18;;
69463;SDS011;56665;41.106;16.688;2023-11-19T07:50:52;12.25;;;6.15;;
69463;SDS011;56665;41.106;16.688;2023-11-19T07:53:56;10.05;;;5.20;;
69463;SDS011;56665;41.106;16.688;2023-11-19T07:57:00;10.43;;;5.50;;
69463;SDS011;56665;41.106;16.688;2023-11-19T08:00:05;12.70;;;5.50;;
69463;SDS011;56665;41.106;16.688;2023-11-19T08:03:16;13.20;;;6.03;;
69463;SDS011;56665;41.106;16.688;2023-11-19T08:06:20;11.60;;;4.88;;
69463;SDS011;56665;41.106;16.688;2023-11-19T08:09:24;10.10;;;4.22;;
69463;SDS011;56665;41.106;16.688;2023-11-19T08:12:27;13.73;;;4.50;;
69463;SDS011;56665;41.106;16.688;2023-11-19T08:15:31;11.87;;;3.97;;
69463;SDS011;56665;41.106;16.688;2023-11-19T08:18:35;9.27;;;3.85;;
69463;SDS011;56665;41.106;16.688;2023-11-19T08:21:39;11.25;;;4.30;;
69463;SDS011;56665;41.106;16.688;2023-11-19T08:24:43;8.43;;;3.67;;
69463;SDS011;56665;41.106;16.688;2023-11-19T08:27:47;8.27;;;3.55;;
69463;SDS011;56665;41.106;16.688;2023-11-19T08:30:50;9.10;;;3.30;;
69463;SDS011;56665;41.106;16.688;2023-11-19T08:33:54;7.60;;;3.58;;
69463;SDS011;56665;41.106;16.688;2023-11-19T08:36:59;5.28;;;2.67;;
69463;SDS011;56665;41.106;16.688;2023-11-19T08:40:02;7.10;;;2.83;;
69463;SDS011;56665;41.106;16.688;2023-11-19T08:43:07;7.28;;;3.20;;
69463;SDS011;56665;41.106;16.688;2023-11-19T08:46:11;7.97;;;3.23;;
69463;SDS011;56665;41.106;16.688;2023-11-19T08:49:15;5.95;;;2.80;;
69463;SDS011;56665;41.106;16.688;2023-11-19T08:52:19;6.35;;;2.55;;
69463;SDS011;56665;41.106;16.688;2023-11-19T08:55:23;7.93;;;3.33;;
69463;SDS011;56665;41.106;16.688;2023-11-19T08:58:27;6.75;;;4.15;;
69463;SDS011;56665;41.106;16.688;2023-11-19T09:01:30;6.37;;;3.10;;
69463;SDS011;56665;41.106;16.688;2023-11-19T09:04:34;4.82;;;2.67;;
69463;SDS011;56665;41.106;16.688;2023-11-19T09:07:39;4.47;;;2.40;;
69463;SDS011;56665;41.106;16.688;2023-11-19T09:10:43;5.97;;;2.50;;
69463;SDS011;56665;41.106;16.688;2023-11-19T09:13:46;5.03;;;2.30;;
69463;SDS011;56665;41.106;16.688;2023-11-19T09:16:50;8.17;;;2.50;;
69463;SDS011;56665;41.106;16.688;2023-11-19T09:19:55;5.38;;;2.67;;
69463;SDS011;56665;41.106;16.688;2023-11-19T09:22:58;4.47;;;2.50;;
69463;SDS011;56665;41.106;16.688;2023-11-19T09:26:02;4.57;;;2.33;;
69463;SDS011;56665;41.106;16.688;2023-11-19T09:29:06;4.50;;;2.45;;
69463;SDS011;56665;41.106;16.688;2023-11-19T09:32:10;5.40;;;2.20;;
69463;SDS011;56665;41.106;16.688;2023-11-19T09:35:14;3.53;;;2.30;;
69463;SDS011;56665;41.106;16.688;2023-11-19T09:38:19;4.50;;;2.15;;
69463;SDS011;56665;41.106;16.688;2023-11-19T09:41:23;4.75;;;2.70;;
69463;SDS011;56665;41.106;16.688;2023-11-19T09:44:27;5.00;;;2.35;;
69463;SDS011;56665;41.106;16.688;2023-11-19T09:47:31;3.93;;;2.03;;
69463;SDS011;56665;41.106;16.688;2023-11-19T09:50:35;4.80;;;2.20;;
69463;SDS011;56665;41.106;16.688;2023-11-19T09:53:39;5.43;;;2.83;;
69463;SDS011;56665;41.106;16.688;2023-11-19T09:56:42;5.45;;;2.53;;
69463;SDS011;56665;41.106;16.688;2023-11-19T09:59:48;4.13;;;2.10;;
69463;SDS011;56665;41.106;16.688;2023-11-19T10:02:53;3.77;;;1.93;;
69463;SDS011;56665;41.106;16.688;2023-11-19T10:06:00;3.45;;;1.60;;
69463;SDS011;56665;41.106;16.688;2023-11-19T10:09:05;4.15;;;1.52;;
69463;SDS011;56665;41.106;16.688;2023-11-19T10:12:09;6.95;;;2.70;;
69463;SDS011;56665;41.106;16.688;2023-11-19T10:15:23;3.65;;;1.70;;
69463;SDS011;56665;41.106;16.688;2023-11-19T10:18:28;4.57;;;1.77;;
69463;SDS011;56665;41.106;16.688;2023-11-19T10:21:35;4.53;;;1.88;;
69463;SDS011;56665;41.106;16.688;2023-11-19T10:24:38;5.50;;;2.00;;
69463;SDS011;56665;41.106;16.688;2023-11-19T10:27:43;3.55;;;1.80;;
69463;SDS011;56665;41.106;16.688;2023-11-19T10:30:47;3.50;;;1.50;;
69463;SDS011;56665;41.106;16.688;2023-11-19T10:33:52;5.00;;;1.70;;
69463;SDS011;56665;41.106;16.688;2023-11-19T10:36:56;5.55;;;2.00;;
69463;SDS011;56665;41.106;16.688;2023-11-19T10:40:00;6.75;;;2.08;;
69463;SDS011;56665;41.106;16.688;2023-11-19T10:43:03;4.28;;;2.40;;
69463;SDS011;56665;41.106;16.688;2023-11-19T10:46:11;3.78;;;2.20;;
69463;SDS011;56665;41.106;16.688;2023-11-19T10:49:16;4.40;;;2.50;;
69463;SDS011;56665;41.106;16.688;2023-11-19T10:52:19;3.28;;;1.70;;
69463;SDS011;56665;41.106;16.688;2023-11-19T10:55:29;5.20;;;2.50;;
69463;SDS011;56665;41.106;16.688;2023-11-19T10:58:38;5.28;;;2.42;;
69463;SDS011;56665;41.106;16.688;2023-11-19T11:01:50;3.92;;;2.03;;
69463;SDS011;56665;41.106;16.688;2023-11-19T11:04:56;5.87;;;2.07;;
69463;SDS011;56665;41.106;16.688;2023-11-19T11:08:01;5.25;;;3.03;;
69463;SDS011;56665;41.106;16.688;2023-11-19T11:11:06;4.90;;;2.25;;
69463;SDS011;56665;41.106;16.688;2023-11-19T11:14:11;4.93;;;2.22;;
69463;SDS011;56665;41.106;16.688;2023-11-19T11:17:17;3.92;;;2.20;;
69463;SDS011;56665;41.106;16.688;2023-11-19T11:20:21;5.37;;;2.87;;
69463;SDS011;56665;41.106;16.688;2023-11-19T11:30:31;5.40;;;2.85;;
69463;SDS011;56665;41.106;16.688;2023-11-19T11:33:58;5.40;;;2.95;;
69463;SDS011;56665;41.106;16.688;2023-11-19T11:40:37;5.13;;;3.08;;
69463;SDS011;56665;41.106;16.688;2023-11-19T11:43:44;6.80;;;3.00;;
69463;SDS011;56665;41.106;16.688;2023-11-19T11:46:54;5.15;;;2.60;;
69463;SDS011;56665;41.106;16.688;2023-11-19T11:50:04;5.50;;;3.17;;
69463;SDS011;56665;41.106;16.688;2023-11-19T11:53:15;10.67;;;6.20;;
69463;SDS011;56665;41.106;16.688;2023-11-19T11:56:20;9.18;;;5.15;;
69463;SDS011;56665;41.106;16.688;2023-11-19T11:59:24;6.53;;;3.95;;
69463;SDS011;56665;41.106;16.688;2023-11-19T12:02:28;5.07;;;3.10;;
69463;SDS011;56665;41.106;16.688;2023-11-19T12:05:33;4.85;;;2.85;;
69463;SDS011;56665;41.106;16.688;2023-11-19T12:08:41;5.43;;;3.20;;
69463;SDS011;56665;41.106;16.688;2023-11-19T12:11:47;5.60;;;3.10;;
69463;SDS011;56665;41.106;16.688;2023-11-19T12:18:04;7.97;;;4.53;;
69463;SDS011;56665;41.106;16.688;2023-11-19T12:21:08;9.10;;;5.20;;
69463;SDS011;56665;41.106;16.688;2023-11-19T12:24:15;11.07;;;5.47;;
69463;SDS011;56665;41.106;16.688;2023-11-19T12:27:20;8.45;;;4.70;;
69463;SDS011;56665;41.106;16.688;2023-11-19T12:30:27;6.45;;;3.42;;
69463;SDS011;56665;41.106;16.688;2023-11-19T12:33:32;10.30;;;5.85;;
69463;SDS011;56665;41.106;16.688;2023-11-19T12:36:36;6.13;;;3.13;;
69463;SDS011;56665;41.106;16.688;2023-11-19T12:39:40;5.50;;;2.60;;
69463;SDS011;56665;41.106;16.688;2023-11-19T12:42:47;6.13;;;3.38;;
69463;SDS011;56665;41.106;16.688;2023-11-19T12:45:52;9.23;;;4.95;;
69463;SDS011;56665;41.106;16.688;2023-11-19T12:48:55;10.88;;;6.53;;
69463;SDS011;56665;41.106;16.688;2023-11-19T12:51:59;8.63;;;4.63;;
69463;SDS011;56665;41.106;16.688;2023-11-19T12:58:34;4.63;;;2.47;;
69463;SDS011;56665;41.106;16.688;2023-11-19T13:01:39;7.00;;;2.80;;
69463;SDS011;56665;41.106;16.688;2023-11-19T13:04:44;6.13;;;2.35;;
69463;SDS011;56665;41.106;16.688;2023-11-19T13:07:49;5.22;;;2.65;;
69463;SDS011;56665;41.106;16.688;2023-11-19T13:10:53;5.07;;;2.50;;
69463;SDS011;56665;41.106;16.688;2023-11-19T13:13:58;5.68;;;2.88;;
69463;SDS011;56665;41.106;16.688;2023-11-19T13:17:02;4.60;;;2.35;;
69463;SDS011;56665;41.106;16.688;2023-11-19T13:20:06;4.40;;;2.40;;
69463;SDS011;56665;41.106;16.688;2023-11-19T13:23:11;7.10;;;3.95;;
69463;SDS011;56665;41.106;16.688;2023-11-19T13:26:15;13.83;;;7.73;;
69463;SDS011;56665;41.106;16.688;2023-11-19T13:29:18;9.68;;;4.72;;
69463;SDS011;56665;41.106;16.688;2023-11-19T13:32:22;7.25;;;3.45;;
69463;SDS011;56665;41.106;16.688;2023-11-19T13:35:26;5.85;;;3.10;;
69463;SDS011;56665;41.106;16.688;2023-11-19T13:38:32;5.95;;;2.30;;
69463;SDS011;56665;41.106;16.688;2023-11-19T13:41:36;6.27;;;2.63;;
69463;SDS011;56665;41.106;16.688;2023-11-19T13:44:39;3.67;;;2.15;;
69463;SDS011;56665;41.106;16.688;2023-11-19T13:47:44;6.50;;;2.55;;
69463;SDS011;56665;41.106;16.688;2023-11-19T13:50:48;4.80;;;2.20;;
69463;SDS011;56665;41.106;16.688;2023-11-19T13:53:52;4.88;;;2.25;;
69463;SDS011;56665;41.106;16.688;2023-11-19T13:56:56;4.93;;;2.20;;
69463;SDS011;56665;41.106;16.688;2023-11-19T14:00:02;4.80;;;2.40;;
69463;SDS011;56665;41.106;16.688;2023-11-19T14:03:12;3.75;;;1.95;;
69463;SDS011;56665;41.106;16.688;2023-11-19T14:06:16;5.20;;;2.28;;
69463;SDS011;56665;41.106;16.688;2023-11-19T14:09:20;3.80;;;2.30;;
69463;SDS011;56665;41.106;16.688;2023-11-19T14:12:24;5.23;;;2.10;;
69463;SDS011;56665;41.106;16.688;2023-11-19T14:15:28;4.50;;;2.20;;
69463;SDS011;56665;41.106;16.688;2023-11-19T14:18:33;3.55;;;1.83;;
69463;SDS011;56665;41.106;16.688;2023-11-19T14:21:38;5.35;;;1.95;;
69463;SDS011;56665;41.106;16.688;2023-11-19T14:24:41;4.78;;;2.20;;
69463;SDS011;56665;41.106;16.688;2023-11-19T14:27:46;4.43;;;1.70;;
69463;SDS011;56665;41.106;16.688;2023-11-19T14:30:49;6.53;;;3.00;;
69463;SDS011;56665;41.106;16.688;2023-11-19T14:33:57;5.78;;;3.03;;
69463;SDS011;56665;41.106;16.688;2023-11-19T14:37:01;7.93;;;4.38;;
69463;SDS011;56665;41.106;16.688;2023-11-19T14:40:05;7.97;;;4.15;;
69463;SDS011;56665;41.106;16.688;2023-11-19T14:43:12;7.33;;;3.43;;
69463;SDS011;56665;41.106;16.688;2023-11-19T14:46:15;6.03;;;2.30;;
69463;SDS011;56665;41.106;16.688;2023-11-19T14:49:19;4.78;;;1.80;;
69463;SDS011;56665;41.106;16.688;2023-11-19T14:52:23;9.75;;;2.15;;
69463;SDS011;56665;41.106;16.688;2023-11-19T14:55:27;7.20;;;1.80;;
69463;SDS011;56665;41.106;16.688;2023-11-19T14:58:30;6.43;;;1.83;;
69463;SDS011;56665;41.106;16.688;2023-11-19T15:01:34;5.13;;;2.03;;
69463;SDS011;56665;41.106;16.688;2023-11-19T15:04:38;7.78;;;3.15;;
69463;SDS011;56665;41.106;16.688;2023-11-19T15:07:43;8.10;;;2.92;;
69463;SDS011;56665;41.106;16.688;2023-11-19T15:10:46;7.13;;;2.67;;
69463;SDS011;56665;41.106;16.688;2023-11-19T15:13:50;8.07;;;3.23;;
69463;SDS011;56665;41.106;16.688;2023-11-19T15:16:54;10.95;;;3.53;;
69463;SDS011;56665;41.106;16.688;2023-11-19T15:19:58;10.43;;;3.90;;
69463;SDS011;56665;41.106;16.688;2023-11-19T15:23:02;16.92;;;9.05;;
69463;SDS011;56665;41.106;16.688;2023-11-19T15:26:07;60.47;;;30.33;;
69463;SDS011;56665;41.106;16.688;2023-11-19T15:29:13;120.97;;;57.67;;
69463;SDS011;56665;41.106;16.688;2023-11-19T15:32:17;95.25;;;47.05;;
69463;SDS011;56665;41.106;16.688;2023-11-19T15:35:21;70.70;;;39.20;;
69463;SDS011;56665;41.106;16.688;2023-11-19T15:38:25;45.25;;;25.55;;
69463;SDS011;56665;41.106;16.688;2023-11-19T15:41:29;26.48;;;14.18;;
69463;SDS011;56665;41.106;16.688;2023-11-19T15:44:33;17.77;;;9.27;;
69463;SDS011;56665;41.106;16.688;2023-11-19T15:47:37;19.00;;;10.40;;
69463;SDS011;56665;41.106;16.688;2023-11-19T15:50:42;33.58;;;19.98;;
69463;SDS011;56665;41.106;16.688;2023-11-19T15:53:47;43.15;;;28.17;;
69463;SDS011;56665;41.106;16.688;2023-11-19T15:56:51;26.08;;;15.57;;
69463;SDS011;56665;41.106;16.688;2023-11-19T15:59:55;18.20;;;8.60;;
69463;SDS011;56665;41.106;16.688;2023-11-19T16:02:59;31.42;;;19.88;;
69463;SDS011;56665;41.106;16.688;2023-11-19T16:06:03;28.10;;;17.13;;
69463;SDS011;56665;41.106;16.688;2023-11-19T16:09:07;21.30;;;11.98;;
69463;SDS011;56665;41.106;16.688;2023-11-19T16:12:13;44.17;;;30.17;;
69463;SDS011;56665;41.106;16.688;2023-11-19T16:15:16;38.13;;;25.10;;
69463;SDS011;56665;41.106;16.688;2023-11-19T16:18:20;23.42;;;15.52;;
69463;SDS011;56665;41.106;16.688;2023-11-19T16:21:24;24.88;;;14.68;;
69463;SDS011;56665;41.106;16.688;2023-11-19T16:24:27;26.95;;;16.38;;
69463;SDS011;56665;41.106;16.688;2023-11-19T16:27:31;17.38;;;8.63;;
69463;SDS011;56665;41.106;16.688;2023-11-19T16:30:35;14.77;;;7.73;;
69463;SDS011;56665;41.106;16.688;2023-11-19T16:33:39;21.58;;;10.45;;
69463;SDS011;56665;41.106;16.688;2023-11-19T16:36:42;28.20;;;16.90;;
69463;SDS011;56665;41.106;16.688;2023-11-19T16:39:47;70.47;;;48.17;;
69463;SDS011;56665;41.106;16.688;2023-11-19T16:42:51;32.65;;;20.05;;
69463;SDS011;56665;41.106;16.688;2023-11-19T16:45:54;17.73;;;11.73;;
69463;SDS011;56665;41.106;16.688;2023-11-19T16:48:58;20.45;;;10.27;;
69463;SDS011;56665;41.106;16.688;2023-11-19T16:52:03;12.65;;;7.43;;
69463;SDS011;56665;41.106;16.688;2023-11-19T16:55:07;11.98;;;6.47;;
69463;SDS011;56665;41.106;16.688;2023-11-19T16:58:14;10.45;;;6.75;;
69463;SDS011;56665;41.106;16.688;2023-11-19T17:01:18;15.13;;;7.97;;
69463;SDS011;56665;41.106;16.688;2023-11-19T17:04:22;19.13;;;9.75;;
69463;SDS011;56665;41.106;16.688;2023-11-19T17:07:26;20.50;;;10.27;;
69463;SDS011;56665;41.106;16.688;2023-11-19T17:10:30;21.45;;;10.25;;
69463;SDS011;56665;41.106;16.688;2023-11-19T17:13:34;25.02;;;12.10;;
69463;SDS011;56665;41.106;16.688;2023-11-19T17:16:38;33.78;;;14.45;;
69463;SDS011;56665;41.106;16.688;2023-11-19T17:19:43;43.95;;;17.70;;
69463;SDS011;56665;41.106;16.688;2023-11-19T17:22:47;37.08;;;15.02;;
69463;SDS011;56665;41.106;16.688;2023-11-19T17:25:52;30.55;;;12.13;;
69463;SDS011;56665;41.106;16.688;2023-11-19T17:28:56;28.83;;;11.93;;
69463;SDS011;56665;41.106;16.688;2023-11-19T17:32:00;31.00;;;11.97;;
69463;SDS011;56665;41.106;16.688;2023-11-19T17:35:05;26.58;;;12.30;;
69463;SDS011;56665;41.106;16.688;2023-11-19T17:38:09;29.67;;;11.48;;
69463;SDS011;56665;41.106;16.688;2023-11-19T17:41:13;26.90;;;10.82;;
69463;SDS011;56665;41.106;16.688;2023-11-19T17:44:17;21.63;;;10.63;;
69463;SDS011;56665;41.106;16.688;2023-11-19T17:47:21;20.53;;;8.70;;
69463;SDS011;56665;41.106;16.688;2023-11-19T17:50:25;22.70;;;9.20;;
69463;SDS011;56665;41.106;16.688;2023-11-19T17:53:29;20.50;;;8.38;;
69463;SDS011;56665;41.106;16.688;2023-11-19T17:56:33;20.38;;;9.23;;
69463;SDS011;56665;41.106;16.688;2023-11-19T17:59:36;24.08;;;10.10;;
69463;SDS011;56665;41.106;16.688;2023-11-19T18:02:41;37.83;;;11.07;;
69463;SDS011;56665;41.106;16.688;2023-11-19T18:05:48;23.65;;;9.82;;
69463;SDS011;56665;41.106;16.688;2023-11-19T18:08:52;21.40;;;8.80;;
69463;SDS011;56665;41.106;16.688;2023-11-19T18:11:56;19.13;;;8.52;;
69463;SDS011;56665;41.106;16.688;2023-11-19T18:15:02;25.30;;;9.00;;
69463;SDS011;56665;41.106;16.688;2023-11-19T18:18:16;23.20;;;9.43;;
69463;SDS011;56665;41.106;16.688;2023-11-19T18:21:20;24.02;;;10.13;;